Airfield :
LOGIN :

Register | Disclaimer

   EN    FR    IT 

 










Legend :    VFR   Marginal VFR   IFR   Intensive IFR   Very Intensive IFR
Visi :
Ceiling :
>= 8 km
>= 3000ft
5 to 8 km
1000 to 3000 ft
1500m to 5 km
500 to 1000 ft
800 to 1500m
200 to 500 ft
< 800m
< 200 ft
Symbols :   Thunderstorms  Fog  Heavy snow  Heavy precipitations  Wind > 20 kt
SIGMETs :     Misc.  Thunderstorms  Icing  Turbulence  Mountain Waves  Volcanic Ashes






- Airport Elevation : 62 ft
- IATA code : ARH


ULAA - Talagi

CURRENT METAR :
  • 131100Z 26002MPS 200V300 9999 -SHRA OVC005CB 18/18 Q1008 R08/290062 NOSIG RMK QBB170 QFE755/1007

EXPIRED METARs :
  • 131030Z VRB01MPS 9999 -SHRA OVC005CB 18/18 Q1008 R08/290062 NOSIG RMK QBB170 QFE755/1006
  • 131000Z 19003MPS 160V220 9999 -SHRA OVC005CB 17/17 Q1008 R08/290062 NOSIG RMK QBB170 QFE755/1006
  • 130930Z 18003MPS 150V230 9999 -SHRA OVC004CB 17/17 Q1008 R08/290062 NOSIG RMK QBB140 QFE755/1006
  • 130900Z 18004MPS 140V220 4400 -SHRA BR OVC004CB 16/16 Q1008 R08/290062 NOSIG RMK QBB130 QFE755/1006
  • 130830Z 17003MPS 120V220 2600 -SHRA BR OVC005CB 16/16 Q1008 R08/290062 NOSIG RMK QBB150 QFE755/1006
  • 130800Z 17004MPS 100V210 4300 -SHRA BR OVC007CB 16/16 Q1008 R08/290062 NOSIG RMK QFE755/1006
  • 130810Z 17004MPS 120V220 3100 -SHRA BR OVC005CB 16/16 Q1008 R08/290062 NOSIG RMK QBB150 QFE755/1006
  • 130730Z 16004MPS 120V240 2700 -SHRA BR OVC007CB 16/16 Q1008 R08/290062 NOSIG RMK QFE755/1006
  • 130700Z 16004MPS 100V250 5000 -SHRA BR OVC007CB 16/16 Q1008 R08/290062 NOSIG RMK QFE755/1006
  • 130630Z 16003MPS 100V200 3800 -SHRA OVC008CB 16/16 Q1008 R08/290062 NOSIG RMK QFE755/1006

TAF TAF ULAA
Valid from the 13 at 09:00 until the 14 at 09:00 UTC


130800Z 1309/1409 18005MPS 6000 -SHRA BKN011CB
TEMPO 1309/1312 21004G10MPS 2000 SHRA BR BKN005 BKN011CB
FM131200 30005MPS 9999 BKN016
TEMPO 1312/1318 25003G09MPS 6000 -SHRA BKN016CB
TEMPO 1318/1401 VRB01MPS 1000 BR FEW003



MET'MAP, your aeronautical weather chart ! - Copyright ORBIFLY December 2007 - Disclaimer

ORBIFLY MET'MAP TEAM :

Programming & Development : Alexandra Zaïnal
Original concept : Baudouin d'Aumeries
Technical & hardware support : Manuel Goepfert
Assistance : Marc-Olivier Méhu




SOURCES & CREDITS :

   NOAA